メキシコシティ の空港の天気 - METARとTAF

メキシコ・シティ国際空港 ( MMMX / MEX ) - メキシコ メキシコシティ
飛行場実況気象(Metar)
観測時間02/21 11:45 CST (02/21 17:45 UTC)
風向・風速南西 4m/s
視程10km以上
天気現象
なし
気温24℃
湿度15%
気圧1004.7hPa
METARMMMX 211745Z 22008KT 15SM SKC 24/M04 A3023 NOSIG RMK SLP047 57003 903
過去の天気等 Google飛行場航空写真 Wunderground天気予報

過去48時間のMETAR

飛行場予報(TAF)
発表時間: 2/21 10:23 CST (2/21 16:23 UTC)
予報対象時間: 21日12時 CST ~ 22日18時 CST
風向・風速南南東 8m/s
視程10km以上
全天の4割程度の雲 雲底高度 6710m
21日14時 CST ~ 21日15時 CST に徐々に
風向・風速南 8m/s 瞬間風速 13m/s
21日20時 CST から
風向・風速南 4m/s
視程10km以上
全天の4割程度の雲 雲底高度 6710m
21日23時 CST ~ 21日24時 CST に徐々に
風向・風速静穏
22日6時 CST から
風向・風速東南東 3m/s
視程10km以上
天気現象煙霧
全天の4割程度の雲 雲底高度 6710m
22日14時 CST ~ 22日15時 CST に徐々に
風向・風速南 6m/s 瞬間風速 11m/s
TAF MMMX 211623Z 2118/2224 16015KT P6SM SCT220 TX27/2122Z TN14/2213Z
BECMG 2120/2121 18015G25KT
FM220200 18008KT P6SM SCT220
BECMG 2205/2206 00000KT
FM221200 12005KT 6SM HZ SCT220
BECMG 2220/2221 18012G22KT